createdAt,value
2019-04-07T00:00:11.825Z,64.50
2019-04-07T00:02:42.819Z,62.30
2019-04-07T00:05:14.820Z,63.00
2019-04-07T00:07:45.975Z,65.43
2019-04-07T00:10:17.010Z,66.60
2019-04-07T00:12:49.863Z,69.77
2019-04-07T00:15:20.923Z,69.47
2019-04-07T00:17:51.850Z,59.37
2019-04-07T00:20:23.946Z,63.87
2019-04-07T00:22:57.348Z,57.53
2019-04-07T00:25:28.762Z,63.37
2019-04-07T00:27:59.774Z,58.20
2019-04-07T00:30:30.835Z,57.07
2019-04-07T00:33:01.988Z,63.63
2019-04-07T00:35:33.620Z,64.10
2019-04-07T00:38:04.870Z,64.70
2019-04-07T00:40:37.084Z,56.57
2019-04-07T00:43:08.772Z,60.03
2019-04-07T00:45:40.517Z,62.87
2019-04-07T00:48:12.287Z,56.57
2019-04-07T00:50:43.704Z,58.37
2019-04-07T00:53:14.721Z,52.63
2019-04-07T00:55:45.721Z,56.10
2019-04-07T00:58:16.789Z,58.30
2019-04-07T01:00:50.408Z,60.50
2019-04-07T01:03:21.462Z,61.47
2019-04-07T01:05:52.544Z,63.57
2019-04-07T01:08:23.503Z,63.83
2019-04-07T01:10:54.562Z,65.33
2019-04-07T01:13:26.223Z,60.90
2019-04-07T01:15:57.421Z,64.63
2019-04-07T01:18:31.752Z,59.00
2019-04-07T01:21:03.862Z,60.97
2019-04-07T01:23:34.878Z,61.87
2019-04-07T01:26:06.410Z,49.03
2019-04-07T01:28:37.569Z,50.63
2019-04-07T01:31:08.799Z,53.07
2019-04-07T01:33:40.092Z,54.77
2019-04-07T01:36:11.293Z,50.93
2019-04-07T01:38:42.270Z,52.20
2019-04-07T01:41:15.273Z,53.40
2019-04-07T01:44:14.688Z,54.57
2019-04-07T01:46:56.830Z,57.77
2019-04-07T01:49:35.960Z,57.67
2019-04-07T01:52:08.727Z,56.23
2019-04-07T01:54:47.262Z,59.57
2019-04-07T01:57:20.178Z,61.47
2019-04-07T01:59:58.509Z,57.47
2019-04-07T02:02:45.509Z,60.23
2019-04-07T02:05:21.116Z,58.83
2019-04-07T02:07:56.780Z,64.73
2019-04-07T02:10:29.371Z,63.20
2019-04-07T02:13:02.154Z,63.30
2019-04-07T02:15:41.457Z,66.43
2019-04-07T02:18:14.801Z,66.03
2019-04-07T02:21:05.415Z,67.90
2019-04-07T02:23:53.625Z,68.57
2019-04-07T02:26:29.014Z,65.57
2019-04-07T02:29:18.071Z,71.53
2019-04-07T02:31:54.235Z,65.80
2019-04-07T02:34:33.854Z,64.70
2019-04-07T02:37:12.781Z,63.83
2019-04-07T02:39:48.822Z,62.97
2019-04-07T02:42:21.487Z,68.67
2019-04-07T02:45:10.996Z,71.10
2019-04-07T02:47:59.660Z,77.03
2019-04-07T02:50:35.243Z,78.17
2019-04-07T02:53:24.577Z,75.83
2019-04-07T02:56:13.508Z,77.67
2019-04-07T02:58:49.767Z,70.10
2019-04-07T03:01:26.349Z,76.20
2019-04-07T03:04:00.217Z,69.53
2019-04-07T03:06:52.534Z,73.30
2019-04-07T03:09:40.459Z,65.70
2019-04-07T03:12:18.971Z,65.23
2019-04-07T03:15:00.730Z,71.40
2019-04-07T03:17:49.826Z,68.33
2019-04-07T03:20:39.232Z,67.47
2019-04-07T03:23:27.265Z,63.57
2019-04-07T03:26:16.346Z,71.80
2019-04-07T03:28:52.609Z,71.50
2019-04-07T03:31:27.380Z,71.53
2019-04-07T03:34:09.756Z,66.70
2019-04-07T03:37:12.691Z,71.03
2019-04-07T03:39:22.294Z,68.53
2019-04-07T03:41:59.035Z,76.03
2019-04-07T03:44:34.790Z,67.10
2019-04-07T03:47:10.730Z,74.87
2019-04-07T03:49:49.669Z,73.27
2019-04-07T03:52:25.361Z,72.67
2019-04-07T03:54:58.880Z,76.60
2019-04-07T03:57:32.438Z,72.83
2019-04-07T04:00:26.155Z,66.50
2019-04-07T04:02:59.237Z,66.20
2019-04-07T04:05:39.444Z,65.50
2019-04-07T04:08:18.370Z,66.23
2019-04-07T04:10:53.890Z,63.97
2019-04-07T04:13:30.579Z,56.60
2019-04-07T04:16:03.438Z,55.93
2019-04-07T04:18:35.235Z,57.87
2019-04-07T04:21:07.023Z,60.50
2019-04-07T04:23:41.545Z,62.33
2019-04-07T04:26:10.951Z,62.97
2019-04-07T04:28:42.959Z,56.97
2019-04-07T04:31:15.483Z,58.63
2019-04-07T04:33:46.622Z,68.63
2019-04-07T04:36:17.839Z,70.20
2019-04-07T04:38:48.847Z,69.37
2019-04-07T04:41:20.913Z,68.23
2019-04-07T04:43:52.069Z,73.60
2019-04-07T04:46:26.627Z,71.33
2019-04-07T04:48:58.752Z,69.80
2019-04-07T04:51:36.981Z,67.20
2019-04-07T04:54:07.095Z,64.20
2019-04-07T04:56:39.516Z,61.93
2019-04-07T04:59:11.392Z,63.27
2019-04-07T05:01:45.130Z,68.63
2019-04-07T05:04:16.202Z,71.27
2019-04-07T05:06:49.094Z,63.07
2019-04-07T05:09:21.051Z,60.20
2019-04-07T05:11:52.825Z,59.77
2019-04-07T05:14:24.232Z,59.87
2019-04-07T05:16:56.477Z,62.37
2019-04-07T05:19:28.238Z,54.67
2019-04-07T05:21:59.864Z,54.63
2019-04-07T05:24:31.276Z,58.80
2019-04-07T05:27:03.113Z,56.03
2019-04-07T05:29:34.543Z,55.03
2019-04-07T05:32:05.770Z,55.63
2019-04-07T05:34:36.811Z,54.43
2019-04-07T05:37:08.716Z,55.37
2019-04-07T05:39:40.384Z,44.90
2019-04-07T05:42:12.429Z,46.93
2019-04-07T05:44:43.548Z,46.43
2019-04-07T05:47:15.593Z,45.80
2019-04-07T05:49:46.655Z,44.83
2019-04-07T05:52:18.101Z,50.03
2019-04-07T05:54:50.258Z,46.50
2019-04-07T05:57:22.250Z,48.52
2019-04-07T05:59:53.740Z,50.10
2019-04-07T06:02:27.327Z,53.42
2019-04-07T06:05:00.370Z,50.95
2019-04-07T06:07:51.477Z,48.55
2019-04-07T06:10:37.069Z,49.63
2019-04-07T06:13:12.940Z,49.23
2019-04-07T06:15:43.227Z,50.95
2019-04-07T06:18:15.323Z,50.50
2019-04-07T06:20:46.694Z,45.70
2019-04-07T06:23:22.102Z,48.73
2019-04-07T06:25:53.883Z,47.23
2019-04-07T06:28:26.614Z,43.28
2019-04-07T06:31:00.246Z,40.63
2019-04-07T06:33:30.775Z,43.58
2019-04-07T06:36:01.938Z,41.05
2019-04-07T06:38:34.872Z,40.83
2019-04-07T06:41:06.169Z,38.88
2019-04-07T06:43:39.829Z,38.20
2019-04-07T06:46:14.844Z,40.50
2019-04-07T06:49:08.912Z,39.25
2019-04-07T06:51:43.679Z,35.70
2019-04-07T06:54:33.001Z,34.67
2019-04-07T06:57:09.429Z,39.08
2019-04-07T06:59:45.700Z,34.83
2019-04-07T07:02:16.505Z,35.33
2019-04-07T07:04:57.177Z,31.95
2019-04-07T07:07:47.777Z,32.60
2019-04-07T07:10:26.867Z,33.10
2019-04-07T07:12:53.549Z,31.27
2019-04-07T07:15:26.779Z,30.65
2019-04-07T07:18:02.550Z,30.43
2019-04-07T07:20:47.371Z,31.12
2019-04-07T07:23:20.038Z,33.78
2019-04-07T07:25:51.901Z,34.53
2019-04-07T07:28:23.689Z,31.00
2019-04-07T07:30:55.626Z,31.33
2019-04-07T07:33:26.984Z,32.63
2019-04-07T07:35:58.320Z,28.17
2019-04-07T07:38:32.145Z,26.93
2019-04-07T07:41:03.619Z,28.62
2019-04-07T07:43:34.974Z,27.42
2019-04-07T07:46:06.809Z,26.82
2019-04-07T07:48:37.925Z,25.62
2019-04-07T07:51:12.866Z,23.47
2019-04-07T07:53:42.698Z,24.18
2019-04-07T07:56:14.383Z,24.55
2019-04-07T07:58:46.084Z,26.52
2019-04-07T08:01:17.915Z,27.45
2019-04-07T08:03:51.715Z,28.30
2019-04-07T08:06:22.533Z,25.80
2019-04-07T08:08:53.729Z,36.38
2019-04-07T08:11:25.676Z,25.57
2019-04-07T08:13:58.130Z,28.05
2019-04-07T08:16:31.076Z,31.10
2019-04-07T08:19:02.802Z,28.05
2019-04-07T08:21:34.811Z,30.23
2019-04-07T08:24:05.887Z,36.23
2019-04-07T08:26:36.897Z,29.95
2019-04-07T08:29:08.758Z,32.75
2019-04-07T08:31:39.913Z,34.03
2019-04-07T08:34:11.033Z,31.00
2019-04-07T08:36:44.479Z,31.20
2019-04-07T08:39:22.984Z,34.40
2019-04-07T08:41:48.439Z,31.93
2019-04-07T08:44:19.455Z,31.52
2019-04-07T08:46:50.833Z,25.62
2019-04-07T08:49:24.160Z,22.62
2019-04-07T08:51:56.097Z,27.73
2019-04-07T08:54:27.637Z,28.50
2019-04-07T08:56:59.182Z,25.27
2019-04-07T08:59:30.342Z,28.80
2019-04-07T09:02:01.961Z,24.77
2019-04-07T09:04:32.984Z,24.57
2019-04-07T09:07:05.202Z,27.25
2019-04-07T09:09:40.381Z,26.20
2019-04-07T09:12:10.375Z,23.85
2019-04-07T09:14:41.948Z,25.10
2019-04-07T09:17:14.912Z,22.27
2019-04-07T09:19:47.698Z,24.32
2019-04-07T09:22:29.718Z,21.42
2019-04-07T09:25:06.266Z,24.25
2019-04-07T09:27:46.039Z,18.92
2019-04-07T09:30:30.839Z,18.37
2019-04-07T09:33:03.449Z,20.90
2019-04-07T09:35:48.672Z,20.82
2019-04-07T09:38:24.963Z,19.17
2019-04-07T09:40:57.227Z,20.00
2019-04-07T09:43:33.467Z,19.42
2019-04-07T09:46:09.333Z,20.70
2019-04-07T09:48:56.670Z,20.77
2019-04-07T09:51:46.218Z,20.02
2019-04-07T09:54:37.871Z,23.83
2019-04-07T09:57:16.864Z,19.17
2019-04-07T09:59:52.491Z,20.52
2019-04-07T10:02:33.577Z,21.50
2019-04-07T10:05:21.576Z,21.85
2019-04-07T10:08:07.160Z,19.57
2019-04-07T10:10:56.047Z,19.25
2019-04-07T10:13:31.782Z,15.65
2019-04-07T10:16:10.502Z,21.82
2019-04-07T10:18:42.929Z,19.80
2019-04-07T10:21:19.622Z,20.48
2019-04-07T10:24:08.780Z,18.77
2019-04-07T10:26:57.688Z,17.80
2019-04-07T10:29:34.051Z,20.62
2019-04-07T10:32:15.782Z,17.98
2019-04-07T10:35:01.050Z,21.40
2019-04-07T10:37:34.427Z,26.15
2019-04-07T10:40:25.467Z,17.10
2019-04-07T10:43:00.943Z,19.90
2019-04-07T10:45:45.920Z,18.82
2019-04-07T10:48:24.289Z,18.17
2019-04-07T10:51:07.915Z,18.07
2019-04-07T10:53:51.456Z,16.90
2019-04-07T10:56:30.830Z,15.68
2019-04-07T10:59:05.531Z,16.50
2019-04-07T11:01:44.481Z,17.75
2019-04-07T11:04:19.765Z,17.25
2019-04-07T11:06:52.387Z,10.48
2019-04-07T11:09:28.381Z,17.48
2019-04-07T11:12:16.185Z,16.35
2019-04-07T11:15:07.143Z,23.25
2019-04-07T11:17:39.659Z,17.75
2019-04-07T11:20:13.235Z,18.67
2019-04-07T11:23:04.407Z,20.30
2019-04-07T11:25:41.216Z,19.27
2019-04-07T11:28:29.166Z,20.40
2019-04-07T11:31:05.676Z,18.82
2019-04-07T11:33:50.504Z,16.10
2019-04-07T11:36:38.573Z,16.35
2019-04-07T11:39:14.060Z,18.90
2019-04-07T11:41:55.789Z,21.57
2019-04-07T11:44:31.277Z,18.25
2019-04-07T11:47:06.883Z,17.12
2019-04-07T11:49:58.194Z,17.35
2019-04-07T11:52:31.009Z,19.07
2019-04-07T11:55:03.575Z,16.93
2019-04-07T11:57:36.158Z,19.70
2019-04-07T12:00:26.967Z,18.70
2019-04-07T12:03:03.968Z,15.70
2019-04-07T12:05:52.576Z,17.65
2019-04-07T12:08:35.081Z,18.00
2019-04-07T12:11:14.867Z,12.90
2019-04-07T12:14:00.847Z,14.50
2019-04-07T12:16:38.016Z,18.85
2019-04-07T12:19:14.453Z,16.48
2019-04-07T12:21:53.232Z,20.10
2019-04-07T12:24:42.217Z,17.05
2019-04-07T12:27:21.676Z,16.30
2019-04-07T12:29:55.040Z,15.75
2019-04-07T12:32:27.600Z,13.25
2019-04-07T12:35:04.230Z,15.05
2019-04-07T12:37:48.909Z,16.23
2019-04-07T12:40:22.899Z,10.85
2019-04-07T12:42:59.240Z,16.07
2019-04-07T12:45:31.971Z,19.00
2019-04-07T12:48:06.305Z,26.80
2019-04-07T12:50:39.784Z,16.20
2019-04-07T12:53:25.149Z,17.75
2019-04-07T12:56:13.395Z,26.57
2019-04-07T12:59:02.279Z,17.40
2019-04-07T13:01:34.863Z,22.13
2019-04-07T13:04:26.444Z,19.60
2019-04-07T13:07:08.941Z,22.02
2019-04-07T13:10:00.295Z,24.35
2019-04-07T13:12:30.949Z,19.70
2019-04-07T13:15:08.541Z,18.92
2019-04-07T13:17:43.496Z,22.27
2019-04-07T13:20:32.174Z,24.87
2019-04-07T13:23:23.830Z,25.90
2019-04-07T13:26:03.386Z,22.85
2019-04-07T13:28:39.080Z,29.35
2019-04-07T13:31:27.585Z,23.60
2019-04-07T13:34:01.936Z,33.80
2019-04-07T13:36:53.296Z,24.77
2019-04-07T13:39:45.228Z,33.65
2019-04-07T13:42:23.042Z,36.53
2019-04-07T13:45:11.835Z,27.07
2019-04-07T13:47:57.731Z,27.10
2019-04-07T13:50:46.917Z,28.70
2019-04-07T13:53:36.713Z,25.40
2019-04-07T13:56:17.618Z,26.17
2019-04-07T13:58:53.365Z,23.87
2019-04-07T14:01:26.769Z,24.45
2019-04-07T14:04:00.093Z,22.00
2019-04-07T14:06:36.209Z,23.77
2019-04-07T14:09:21.162Z,24.10
2019-04-07T14:12:10.479Z,23.22
2019-04-07T14:14:57.942Z,23.67
2019-04-07T14:17:30.850Z,27.50
2019-04-07T14:20:16.129Z,30.80
2019-04-07T14:22:48.774Z,25.50
2019-04-07T14:25:41.872Z,31.30
2019-04-07T14:28:14.361Z,29.27
2019-04-07T14:30:53.335Z,36.95
2019-04-07T14:33:30.710Z,37.13
2019-04-07T14:36:07.325Z,37.15
2019-04-07T14:38:56.324Z,27.32
2019-04-07T14:41:43.967Z,32.03
2019-04-07T14:44:16.646Z,30.50
2019-04-07T14:47:04.103Z,30.32
2019-04-07T14:49:39.408Z,28.05
2019-04-07T14:52:11.963Z,29.18
2019-04-07T14:55:01.449Z,30.27
2019-04-07T14:57:41.530Z,42.98
2019-04-07T15:00:26.948Z,30.08
2019-04-07T15:02:57.909Z,34.90
2019-04-07T15:05:34.135Z,32.80
2019-04-07T15:08:16.308Z,72.85
2019-04-07T15:10:50.094Z,35.63
2019-04-07T15:13:25.765Z,59.48
2019-04-07T15:16:00.587Z,53.75
2019-04-07T15:18:32.026Z,36.45
2019-04-07T15:21:04.625Z,34.83
2019-04-07T15:23:35.700Z,67.72
2019-04-07T15:26:06.771Z,33.42
2019-04-07T15:28:38.446Z,33.38
2019-04-07T15:31:10.562Z,32.25
2019-04-07T15:33:42.384Z,40.33
2019-04-07T15:36:17.378Z,93.58
2019-04-07T15:38:46.410Z,78.37
2019-04-07T15:41:19.053Z,40.92
2019-04-07T15:43:50.218Z,43.02
2019-04-07T15:46:22.514Z,34.78
2019-04-07T15:48:55.736Z,42.00
2019-04-07T15:51:26.408Z,37.48
2019-04-07T15:53:57.422Z,43.87
2019-04-07T15:56:28.462Z,51.18
2019-04-07T15:59:01.994Z,56.65
2019-04-07T16:01:33.738Z,39.13
2019-04-07T16:04:14.741Z,35.10
2019-04-07T16:06:48.130Z,47.75
2019-04-07T16:09:33.271Z,36.25
2019-04-07T16:12:14.530Z,40.65
2019-04-07T16:14:48.039Z,47.58
2019-04-07T16:17:21.106Z,49.88
2019-04-07T16:19:54.441Z,43.13
2019-04-07T16:22:25.690Z,54.98
2019-04-07T16:24:57.286Z,45.75
2019-04-07T16:27:28.333Z,54.55
2019-04-07T16:29:59.233Z,44.58
2019-04-07T16:32:31.011Z,48.92
2019-04-07T16:35:02.045Z,53.70
2019-04-07T16:37:33.591Z,45.67
2019-04-07T16:40:10.416Z,39.60
2019-04-07T16:42:39.341Z,36.03
2019-04-07T16:45:13.750Z,42.62
2019-04-07T16:47:44.018Z,50.17
2019-04-07T16:50:18.110Z,42.43
2019-04-07T16:52:48.418Z,42.20
2019-04-07T16:55:34.880Z,52.40
2019-04-07T16:58:06.692Z,41.42
2019-04-07T17:00:38.399Z,37.45
2019-04-07T17:03:10.045Z,37.90
2019-04-07T17:05:41.193Z,36.67
2019-04-07T17:08:12.849Z,40.93
2019-04-07T17:10:43.971Z,39.90
2019-04-07T17:13:20.539Z,40.27
2019-04-07T17:15:48.065Z,50.10
2019-04-07T17:18:41.105Z,44.47
2019-04-07T17:21:16.551Z,54.77
2019-04-07T17:23:53.165Z,99.83
2019-04-07T17:26:23.533Z,85.03
2019-04-07T17:28:56.714Z,76.53
2019-04-07T17:31:28.078Z,79.10
2019-04-07T17:34:03.950Z,140.50
2019-04-07T17:36:34.345Z,173.47
2019-04-07T17:39:22.808Z,72.93
2019-04-07T17:41:55.303Z,70.62
2019-04-07T17:44:28.624Z,69.80
2019-04-07T17:47:13.711Z,69.47
2019-04-07T17:50:05.568Z,76.43
2019-04-07T17:52:41.662Z,64.33
2019-04-07T17:55:18.736Z,65.27
2019-04-07T17:57:57.588Z,62.83
2019-04-07T18:00:36.307Z,59.00
2019-04-07T18:03:11.954Z,64.37
2019-04-07T18:05:46.099Z,59.20
2019-04-07T18:08:28.318Z,171.13
2019-04-07T18:11:01.064Z,69.47
2019-04-07T18:13:45.025Z,62.10
2019-04-07T18:16:15.063Z,64.17
2019-04-07T18:18:47.681Z,65.67
2019-04-07T18:21:21.134Z,65.23
2019-04-07T18:24:01.376Z,61.83
2019-04-07T18:26:40.484Z,51.90
2019-04-07T18:29:14.917Z,58.03
2019-04-07T18:31:47.535Z,55.87
2019-04-07T18:34:27.465Z,58.57
2019-04-07T18:37:18.760Z,57.70
2019-04-07T18:40:03.399Z,60.57
2019-04-07T18:42:54.368Z,65.43
2019-04-07T18:45:32.753Z,90.40
2019-04-07T18:48:22.755Z,106.00
2019-04-07T18:51:13.252Z,112.03
2019-04-07T18:54:04.170Z,156.00
2019-04-07T18:56:41.682Z,143.60
2019-04-07T18:59:23.486Z,140.57
2019-04-07T19:02:14.872Z,204.90
2019-04-07T19:04:51.224Z,249.30
2019-04-07T19:07:27.282Z,239.63
2019-04-07T19:10:08.698Z,233.17
2019-04-07T19:12:41.028Z,232.27
2019-04-07T19:15:13.978Z,178.23
2019-04-07T19:18:09.882Z,176.73
2019-04-07T19:21:14.045Z,167.17
2019-04-07T19:24:10.684Z,146.57
2019-04-07T19:26:54.644Z,155.03
2019-04-07T19:29:46.219Z,150.20
2019-04-07T19:32:20.859Z,136.03
2019-04-07T19:35:11.511Z,130.87
2019-04-07T19:37:50.667Z,111.50
2019-04-07T19:40:32.369Z,106.07
2019-04-07T19:43:18.062Z,99.20
2019-04-07T19:45:55.145Z,94.63
2019-04-07T19:48:31.088Z,104.93
2019-04-07T19:51:03.843Z,113.07
2019-04-07T19:53:55.706Z,114.30
2019-04-07T19:56:35.144Z,102.83
2019-04-07T19:59:14.574Z,105.93
2019-04-07T20:01:50.362Z,93.30
2019-04-07T20:04:32.733Z,89.03
2019-04-07T20:07:17.948Z,93.90
2019-04-07T20:10:03.101Z,95.20
2019-04-07T20:12:47.932Z,94.33
2019-04-07T20:15:43.140Z,88.83
2019-04-07T20:18:34.110Z,77.90
2019-04-07T20:21:08.506Z,74.53
2019-04-07T20:23:43.994Z,81.17
2019-04-07T20:26:22.092Z,84.63
2019-04-07T20:29:06.541Z,87.67
2019-04-07T20:31:40.813Z,96.80
2019-04-07T20:34:19.319Z,146.03
2019-04-07T20:37:08.147Z,137.67
2019-04-07T20:39:41.254Z,132.87
2019-04-07T20:42:31.089Z,135.23
2019-04-07T20:45:14.216Z,124.60
2019-04-07T20:47:44.657Z,118.03
2019-04-07T20:50:20.188Z,110.73
2019-04-07T20:53:10.083Z,103.53
2019-04-07T20:55:45.266Z,118.07
2019-04-07T20:58:48.725Z,116.37
2019-04-07T21:01:44.559Z,105.57
2019-04-07T21:07:35.424Z,76.97
2019-04-07T21:10:11.188Z,71.93
2019-04-07T21:12:45.505Z,76.97
2019-04-07T21:15:30.379Z,81.60
2019-04-07T21:18:15.978Z,80.47
2019-04-07T21:21:11.937Z,90.83
2019-04-07T21:23:59.568Z,86.50
2019-04-07T21:26:48.362Z,83.87
2019-04-07T21:29:28.104Z,76.57
2019-04-07T21:32:18.983Z,74.73
2019-04-07T21:35:08.683Z,77.93
2019-04-07T21:37:51.909Z,86.83
2019-04-07T21:40:39.563Z,84.50
2019-04-07T21:43:20.083Z,84.47
2019-04-07T21:45:54.448Z,78.87
2019-04-07T21:48:44.232Z,83.30
2019-04-07T21:51:33.395Z,78.10
2019-04-07T21:54:07.722Z,78.37
2019-04-07T21:56:46.123Z,85.90
2019-04-07T21:59:37.441Z,83.40
2019-04-07T22:02:19.453Z,81.37
2019-04-07T22:05:18.094Z,80.03
2019-04-07T22:07:53.822Z,91.20
2019-04-07T22:10:25.682Z,82.50
2019-04-07T22:13:00.702Z,89.47
2019-04-07T22:15:42.124Z,87.10
2019-04-07T22:18:06.290Z,91.20
2019-04-07T22:20:34.972Z,91.60
2019-04-07T22:23:09.304Z,90.40
2019-04-07T22:25:52.341Z,95.57
2019-04-07T22:28:27.650Z,93.57
2019-04-07T22:30:57.275Z,96.43
2019-04-07T22:33:30.901Z,86.43
2019-04-07T22:36:01.771Z,85.53
2019-04-07T22:38:33.639Z,82.83
2019-04-07T22:41:06.701Z,85.07
2019-04-07T22:43:37.499Z,83.33
2019-04-07T22:46:17.555Z,78.40
2019-04-07T22:48:41.798Z,84.57
2019-04-07T22:51:13.782Z,92.73
2019-04-07T22:53:45.549Z,77.20
2019-04-07T22:56:18.102Z,90.43
2019-04-07T22:58:52.004Z,90.00
2019-04-07T23:01:23.126Z,91.90
2019-04-07T23:03:54.779Z,95.50
2019-04-07T23:06:26.630Z,98.20
2019-04-07T23:08:57.634Z,89.77
2019-04-07T23:11:29.970Z,81.50
2019-04-07T23:14:01.125Z,81.70
2019-04-07T23:16:36.003Z,90.00
2019-04-07T23:19:07.566Z,86.03
2019-04-07T23:21:39.705Z,79.50
2019-04-07T23:24:11.480Z,75.37
2019-04-07T23:26:42.622Z,77.70
2019-04-07T23:29:22.167Z,80.40
2019-04-07T23:31:57.633Z,72.87
2019-04-07T23:34:36.670Z,79.27
2019-04-07T23:37:12.359Z,80.33
2019-04-07T23:39:44.137Z,70.33
2019-04-07T23:42:15.743Z,69.80
2019-04-07T23:44:58.656Z,72.90
2019-04-07T23:47:37.111Z,66.43
2019-04-07T23:50:09.141Z,70.07
2019-04-07T23:52:41.151Z,65.70
2019-04-07T23:55:12.912Z,69.60
2019-04-07T23:57:44.982Z,68.73
